createdAt,value
2016-10-31T18:01:56.537Z,99.99
2016-10-31T18:02:57.200Z,99.99
2016-10-31T18:03:57.927Z,99.99
2016-10-31T18:04:58.571Z,99.99
2016-10-31T18:05:59.255Z,99.99
2016-10-31T18:06:59.914Z,99.99
2016-10-31T18:08:00.571Z,99.99
2016-10-31T18:09:01.240Z,99.99
2016-10-31T18:10:01.926Z,99.99
2016-10-31T18:11:02.578Z,99.99
2016-10-31T18:12:03.262Z,99.99
2016-10-31T18:13:03.936Z,99.99
2016-10-31T18:14:04.574Z,99.99
2016-10-31T18:15:05.229Z,99.99
2016-10-31T18:16:06.070Z,99.99
2016-10-31T18:17:06.752Z,99.99
2016-10-31T18:18:07.470Z,99.99
2016-10-31T18:19:08.139Z,99.99
2016-10-31T18:20:08.913Z,99.99
2016-10-31T18:21:09.570Z,99.99
2016-10-31T18:22:10.249Z,99.99
2016-10-31T18:23:10.918Z,99.99
2016-10-31T18:24:11.648Z,99.99
2016-10-31T18:25:12.296Z,99.99
2016-10-31T18:26:12.970Z,99.99
2016-10-31T18:27:13.707Z,99.99
2016-10-31T18:28:14.382Z,99.99
2016-10-31T18:29:15.045Z,99.99
2016-10-31T18:30:15.702Z,99.99
2016-10-31T18:31:16.359Z,99.99
2016-10-31T18:32:17.034Z,99.99
2016-10-31T18:33:17.692Z,99.99
2016-10-31T18:34:18.877Z,99.99
2016-10-31T18:35:20.455Z,99.99
2016-10-31T18:36:21.141Z,99.99
2016-10-31T18:37:21.808Z,99.99
2016-10-31T18:38:22.486Z,99.99
2016-10-31T18:39:23.151Z,99.99
2016-10-31T18:40:23.822Z,99.99
2016-10-31T18:41:24.492Z,99.99
2016-10-31T18:42:25.151Z,99.99
2016-10-31T18:43:25.818Z,99.99
2016-10-31T18:44:26.478Z,99.99
2016-10-31T18:45:27.254Z,99.99
2016-10-31T18:46:27.911Z,99.99
2016-10-31T18:47:28.575Z,99.99
2016-10-31T18:48:29.251Z,99.99
2016-10-31T18:49:29.913Z,99.99
2016-10-31T18:50:30.572Z,99.99
2016-10-31T18:51:31.248Z,99.99
2016-10-31T18:52:31.940Z,99.99
2016-10-31T18:53:32.603Z,99.99
2016-10-31T18:54:33.296Z,99.99
2016-10-31T18:55:33.956Z,99.99
2016-10-31T18:56:34.628Z,99.99
2016-10-31T18:57:35.283Z,99.99
2016-10-31T18:58:35.948Z,99.99
2016-10-31T18:59:36.614Z,99.99
2016-10-31T19:00:37.278Z,99.99
2016-10-31T19:01:37.956Z,99.99
2016-10-31T19:02:38.621Z,99.99
2016-10-31T19:03:39.287Z,99.99
2016-10-31T19:04:39.950Z,99.99
2016-10-31T19:05:40.639Z,99.99
2016-10-31T19:06:41.291Z,99.99
2016-10-31T19:07:41.964Z,99.99
2016-10-31T19:08:42.673Z,99.99
2016-10-31T19:09:43.333Z,99.99
2016-10-31T19:10:44.246Z,99.99
2016-10-31T19:11:45.985Z,99.99
2016-10-31T19:12:47.869Z,99.99
2016-10-31T19:13:48.592Z,99.99
2016-10-31T19:14:49.251Z,99.99
2016-10-31T19:15:49.914Z,99.99
2016-10-31T19:16:50.573Z,99.99
2016-10-31T19:17:51.237Z,99.99
2016-10-31T19:18:51.903Z,99.99
2016-10-31T19:19:52.559Z,99.99
2016-10-31T19:20:53.221Z,99.99
2016-10-31T19:21:53.881Z,99.99
2016-10-31T19:22:54.540Z,99.99
2016-10-31T19:23:55.196Z,99.99
2016-10-31T19:24:55.858Z,99.99
2016-10-31T19:25:56.518Z,99.99
2016-10-31T19:26:57.177Z,99.99
2016-10-31T19:27:57.837Z,99.99
2016-10-31T19:28:58.504Z,99.99
2016-10-31T19:29:59.177Z,99.99
2016-10-31T19:30:59.836Z,99.99
2016-10-31T19:32:00.494Z,99.99
2016-10-31T19:33:01.149Z,99.99
2016-10-31T19:34:01.815Z,99.99
2016-10-31T19:35:02.528Z,99.99
2016-10-31T19:36:03.215Z,99.99
2016-10-31T19:37:03.872Z,99.99
2016-10-31T19:38:04.543Z,99.99
2016-10-31T19:39:05.196Z,99.99
2016-10-31T19:40:05.858Z,99.99
2016-10-31T19:41:06.516Z,99.99
2016-10-31T19:42:07.184Z,99.99
2016-10-31T19:43:07.834Z,99.99
2016-10-31T19:44:08.504Z,99.99
2016-10-31T19:45:09.169Z,99.99
2016-10-31T19:46:09.839Z,99.99
2016-10-31T19:47:10.497Z,99.99
2016-10-31T19:48:11.156Z,99.99
2016-10-31T19:49:11.815Z,99.99
2016-10-31T19:50:12.474Z,99.99
2016-10-31T19:51:13.157Z,99.99
2016-10-31T19:52:13.816Z,99.99
2016-10-31T19:53:14.498Z,99.99
2016-10-31T19:54:15.159Z,99.99
2016-10-31T19:55:15.829Z,99.99
2016-10-31T19:56:16.512Z,99.99
2016-10-31T19:57:17.188Z,99.99
2016-10-31T19:58:17.865Z,99.99
2016-10-31T19:59:18.526Z,99.99
2016-10-31T20:00:19.197Z,99.99
2016-10-31T20:01:19.861Z,99.99
2016-10-31T20:02:20.522Z,99.99
2016-10-31T20:03:21.193Z,99.99
2016-10-31T20:04:21.859Z,99.99
2016-10-31T20:05:22.518Z,99.99
2016-10-31T20:06:23.180Z,99.99
2016-10-31T20:07:23.844Z,99.99
2016-10-31T20:08:24.518Z,99.99
2016-10-31T20:09:25.178Z,99.99
2016-10-31T20:10:25.836Z,99.99
2016-10-31T20:11:26.487Z,99.99
2016-10-31T20:12:27.163Z,99.99
2016-10-31T20:13:27.836Z,99.99
2016-10-31T20:14:28.506Z,99.99
2016-10-31T20:15:29.169Z,99.99
2016-10-31T20:16:29.831Z,99.99
2016-10-31T20:17:30.491Z,99.99
2016-10-31T20:18:31.159Z,99.99
2016-10-31T20:19:31.835Z,99.99
2016-10-31T20:20:32.494Z,99.99
2016-10-31T20:21:33.162Z,99.99
2016-10-31T20:22:33.873Z,99.99
2016-10-31T20:23:34.574Z,99.66
2016-10-31T20:24:35.243Z,99.37
2016-10-31T20:25:35.905Z,99.08
2016-10-31T20:26:36.577Z,98.71
2016-10-31T20:27:37.254Z,98.61
2016-10-31T20:28:37.923Z,98.71
2016-10-31T20:29:38.588Z,97.85
2016-10-31T20:30:39.261Z,97.85
2016-10-31T20:31:39.926Z,97.56
2016-10-31T20:32:40.596Z,97.27
2016-10-31T20:33:41.279Z,96.8
2016-10-31T20:34:41.950Z,96.7
2016-10-31T20:35:42.646Z,97.08
2016-10-31T20:36:43.324Z,96.7
2016-10-31T20:37:44.008Z,96.61
2016-10-31T20:38:44.686Z,96.61
2016-10-31T20:39:45.355Z,96.89
2016-10-31T20:40:46.025Z,96.61
2016-10-31T20:41:46.699Z,95.94
2016-10-31T20:42:47.377Z,95.65
2016-10-31T20:43:48.062Z,94.89
2016-10-31T20:44:48.726Z,94.51
2016-10-31T20:45:49.394Z,94.31
2016-10-31T20:46:50.064Z,94.31
2016-10-31T20:47:50.730Z,93.84
2016-10-31T20:48:51.386Z,93.84
2016-10-31T20:49:52.051Z,92.79
2016-10-31T20:50:52.724Z,92.79
2016-10-31T20:51:53.384Z,92.88
2016-10-31T20:52:54.360Z,93.26
2016-10-31T20:53:55.025Z,93.17
2016-10-31T20:54:56.019Z,93.26
2016-10-31T20:55:56.717Z,93.07
2016-10-31T20:56:57.448Z,92.31
2016-10-31T20:57:58.319Z,93.17
2016-10-31T20:58:59.115Z,92.88
2016-10-31T20:59:59.980Z,92.69
2016-10-31T21:01:00.911Z,92.31
2016-10-31T21:02:01.763Z,91.93
2016-10-31T21:03:03.109Z,91.64
2016-10-31T21:04:03.992Z,91.45
2016-10-31T21:05:05.025Z,90.97
2016-10-31T21:06:05.747Z,90.21
2016-10-31T21:07:06.449Z,90.5
2016-10-31T21:08:07.220Z,90.59
2016-10-31T21:09:07.894Z,90.5
2016-10-31T21:10:08.599Z,90.5
2016-10-31T21:11:09.269Z,90.59
2016-10-31T21:12:09.954Z,90.78
2016-10-31T21:13:10.627Z,90.97
2016-10-31T21:14:11.291Z,90.97
2016-10-31T21:15:11.971Z,90.78
2016-10-31T21:16:12.636Z,90.21
2016-10-31T21:17:13.305Z,90.59
2016-10-31T21:18:14.116Z,90.21
2016-10-31T21:19:14.787Z,90.59
2016-10-31T21:20:15.455Z,90.5
2016-10-31T21:21:16.127Z,90.5
2016-10-31T21:22:16.787Z,90.31
2016-10-31T21:23:17.502Z,90.31
2016-10-31T21:24:18.191Z,91.26
2016-10-31T21:25:18.850Z,91.16
2016-10-31T21:26:19.520Z,91.07
2016-10-31T21:27:20.192Z,90.97
2016-10-31T21:28:20.854Z,91.45
2016-10-31T21:29:21.513Z,91.64
2016-10-31T21:30:22.229Z,90.97
2016-10-31T21:31:22.977Z,91.64
2016-10-31T21:32:23.646Z,91.55
2016-10-31T21:33:24.326Z,92.02
2016-10-31T21:34:24.990Z,92.02
2016-10-31T21:35:25.668Z,91.55
2016-10-31T21:36:26.334Z,92.12
2016-10-31T21:37:27.017Z,91.83
2016-10-31T21:38:27.682Z,91.74
2016-10-31T21:39:28.350Z,91.83
2016-10-31T21:40:29.022Z,91.83
2016-10-31T21:41:29.702Z,92.02
2016-10-31T21:42:30.366Z,91.93
2016-10-31T21:43:31.044Z,92.5
2016-10-31T21:44:31.709Z,92.12
2016-10-31T21:45:32.387Z,92.41
2016-10-31T21:46:33.054Z,92.31
2016-10-31T21:47:33.734Z,92.69
2016-10-31T21:48:34.495Z,92.97
2016-10-31T21:49:35.330Z,93.26
2016-10-31T21:50:36.066Z,93.46
2016-10-31T21:51:36.729Z,93.84
2016-10-31T21:52:37.395Z,93.74
2016-10-31T21:53:38.417Z,94.31
2016-10-31T21:54:39.694Z,94.31
2016-10-31T21:55:40.363Z,93.93
2016-10-31T21:56:41.031Z,94.22
2016-10-31T21:57:41.701Z,94.22
2016-10-31T21:58:42.363Z,94.03
2016-10-31T21:59:43.068Z,94.51
2016-10-31T22:00:43.747Z,94.31
2016-10-31T22:01:44.420Z,94.22
2016-10-31T22:02:45.090Z,94.51
2016-10-31T22:03:45.737Z,94.41
2016-10-31T22:04:46.398Z,94.31
2016-10-31T22:05:47.061Z,94.7
2016-10-31T22:06:47.711Z,94.7
2016-10-31T22:07:48.375Z,94.7
2016-10-31T22:08:49.039Z,94.89
2016-10-31T22:09:49.704Z,94.41
2016-10-31T22:10:50.377Z,94.7
2016-10-31T22:11:51.047Z,94.51
2016-10-31T22:12:51.709Z,94.7
2016-10-31T22:13:52.390Z,94.89
2016-10-31T22:14:53.043Z,94.6
2016-10-31T22:15:53.701Z,94.79
2016-10-31T22:16:54.372Z,94.22
2016-10-31T22:17:55.039Z,94.89
2016-10-31T22:18:55.702Z,94.7
2016-10-31T22:19:56.359Z,94.79
2016-10-31T22:20:57.037Z,94.79
2016-10-31T22:21:57.697Z,94.89
2016-10-31T22:22:58.383Z,95.27
2016-10-31T22:23:59.047Z,94.89
2016-10-31T22:24:59.706Z,94.98
2016-10-31T22:26:00.376Z,94.89
2016-10-31T22:27:01.045Z,94.7
2016-10-31T22:28:01.711Z,94.7
2016-10-31T22:29:02.372Z,94.98
2016-10-31T22:30:03.041Z,95.27
2016-10-31T22:31:03.705Z,95.46
2016-10-31T22:32:04.394Z,94.89
2016-10-31T22:33:05.065Z,95.56
2016-10-31T22:34:05.746Z,95.84
2016-10-31T22:35:06.410Z,95.56
2016-10-31T22:36:07.079Z,96.03
2016-10-31T22:37:07.754Z,96.42
2016-10-31T22:38:08.422Z,96.32
2016-10-31T22:39:09.086Z,96.42
2016-10-31T22:40:09.777Z,96.98
2016-10-31T22:41:10.438Z,96.8
2016-10-31T22:42:11.119Z,97.08
2016-10-31T22:43:11.781Z,96.89
2016-10-31T22:44:12.464Z,96.98
2016-10-31T22:45:13.135Z,97.18
2016-10-31T22:46:14.109Z,97.47
2016-10-31T22:47:14.786Z,97.47
2016-10-31T22:48:15.448Z,97.27
2016-10-31T22:49:16.124Z,97.18
2016-10-31T22:50:16.784Z,97.08
2016-10-31T22:51:17.459Z,97.66
2016-10-31T22:52:18.116Z,97.37
2016-10-31T22:53:18.772Z,97.18
2016-10-31T22:54:19.433Z,97.47
2016-10-31T22:55:20.098Z,96.98
2016-10-31T22:56:20.769Z,97.66
2016-10-31T22:57:21.464Z,97.18
2016-10-31T22:58:22.127Z,97.75
2016-10-31T22:59:22.791Z,97.47
2016-10-31T23:00:23.465Z,97.37
2016-10-31T23:01:24.139Z,97.18
2016-10-31T23:02:24.808Z,97.56
2016-10-31T23:03:25.475Z,97.75
2016-10-31T23:04:26.164Z,97.75
2016-10-31T23:05:26.822Z,97.56
2016-10-31T23:06:27.487Z,97.18
2016-10-31T23:07:28.160Z,96.89
2016-10-31T23:08:28.858Z,97.08
2016-10-31T23:09:29.538Z,97.56
2016-10-31T23:10:30.233Z,97.37
2016-10-31T23:11:30.915Z,96.7
2016-10-31T23:12:31.621Z,96.98
2016-10-31T23:13:32.305Z,97.18
2016-10-31T23:14:32.984Z,97.18
2016-10-31T23:15:33.670Z,96.89
2016-10-31T23:16:34.347Z,96.89
2016-10-31T23:17:35.011Z,96.7
2016-10-31T23:18:35.682Z,96.98
2016-10-31T23:19:36.360Z,96.51
2016-10-31T23:20:37.025Z,96.61
2016-10-31T23:21:37.702Z,96.61
2016-10-31T23:22:38.389Z,96.61
2016-10-31T23:23:39.068Z,96.22
2016-10-31T23:24:39.732Z,96.13
2016-10-31T23:25:40.406Z,96.22
2016-10-31T23:26:41.066Z,96.98
2016-10-31T23:27:41.732Z,96.98
2016-10-31T23:28:42.399Z,96.13
2016-10-31T23:29:43.064Z,96.42
2016-10-31T23:30:43.728Z,96.42
2016-10-31T23:31:44.400Z,96.61
2016-10-31T23:32:45.060Z,96.32
2016-10-31T23:33:45.737Z,96.03
2016-10-31T23:34:46.407Z,96.22
2016-10-31T23:35:47.075Z,96.22
2016-10-31T23:36:47.742Z,95.36
2016-10-31T23:37:48.448Z,95.46
2016-10-31T23:38:49.111Z,95.46
2016-10-31T23:39:49.781Z,94.89
2016-10-31T23:40:50.445Z,94.98
2016-10-31T23:41:51.107Z,95.17
2016-10-31T23:42:51.777Z,95.17
2016-10-31T23:43:52.442Z,94.89
2016-10-31T23:44:53.109Z,94.89
2016-10-31T23:45:53.791Z,94.89
2016-10-31T23:46:54.451Z,94.7
2016-10-31T23:47:55.132Z,94.79
2016-10-31T23:48:55.794Z,94.79
2016-10-31T23:49:56.456Z,94.89
2016-10-31T23:50:57.124Z,94.89
2016-10-31T23:51:57.783Z,95.46
2016-10-31T23:52:58.448Z,95.46
2016-10-31T23:53:59.122Z,95.36
2016-10-31T23:54:59.821Z,95.36
2016-10-31T23:56:00.493Z,95.27
2016-10-31T23:57:01.181Z,94.98
2016-10-31T23:58:01.850Z,95.46
2016-10-31T23:59:02.509Z,95.46
